EZY77DM EGPH-EGKK
Flight info
| Callsign | EZY77DM |
|---|---|
| Flight time | 1h 13m |
| Altitude | 27000 |
| Route | GOSAM1D GOSAM P600 FENIK L612 NAVSO DCT KEPAD L151 DISIT DISIT1G |
| Aircraft | A319/M-SDE3FGHIRWY/LB1 |
Departure
| Time | 2026-04-21 10:17 |
|---|---|
| Airport | Edinburgh Airport (EGPH) |
Arrival
| Time | 2026-04-21 11:30 |
|---|---|
| Airport | London Gatwick Airport (EGKK) |
| Time | Latitude | Longitude | Altitude | Speed | Heading |
|---|---|---|---|---|---|
| 2026-04-21 09:49 | 55.94801 | -3.35679 | 107 ft | 0 kts | 208° |
| 2026-04-21 10:07 | 55.94823 | -3.35658 | 106 ft | 2 kts | 208° |
| 2026-04-21 10:08 | 55.94835 | -3.35646 | 107 ft | 4 kts | 213° |
| 2026-04-21 10:08 | 55.94853 | -3.35616 | 108 ft | 4 kts | 257° |
| 2026-04-21 10:08 | 55.94852 | -3.35592 | 106 ft | 1 kts | 299° |
| 2026-04-21 10:11 | 55.94856 | -3.35602 | 107 ft | 4 kts | 299° |
| 2026-04-21 10:11 | 55.94878 | -3.35676 | 107 ft | 10 kts | 298° |
| 2026-04-21 10:11 | 55.94921 | -3.35818 | 108 ft | 16 kts | 301° |
| 2026-04-21 10:11 | 55.95006 | -3.35842 | 105 ft | 14 kts | 21° |
| 2026-04-21 10:12 | 55.95074 | -3.35933 | 106 ft | 14 kts | 296° |
| 2026-04-21 10:12 | 55.95116 | -3.36111 | 103 ft | 17 kts | 285° |
| 2026-04-21 10:12 | 55.95120 | -3.36321 | 104 ft | 17 kts | 245° |
| 2026-04-21 10:12 | 55.95060 | -3.36496 | 108 ft | 16 kts | 238° |
| 2026-04-21 10:13 | 55.94999 | -3.36674 | 106 ft | 18 kts | 239° |
| 2026-04-21 10:13 | 55.94934 | -3.36869 | 105 ft | 20 kts | 238° |
| 2026-04-21 10:13 | 55.94859 | -3.37086 | 104 ft | 20 kts | 239° |
| 2026-04-21 10:13 | 55.94785 | -3.37309 | 106 ft | 21 kts | 239° |
| 2026-04-21 10:14 | 55.94715 | -3.37516 | 110 ft | 19 kts | 239° |
| 2026-04-21 10:14 | 55.94649 | -3.37709 | 114 ft | 18 kts | 238° |
| 2026-04-21 10:14 | 55.94582 | -3.37906 | 113 ft | 19 kts | 238° |
| 2026-04-21 10:14 | 55.94510 | -3.38120 | 110 ft | 21 kts | 239° |
| 2026-04-21 10:15 | 55.94434 | -3.38347 | 113 ft | 21 kts | 238° |
| 2026-04-21 10:15 | 55.94359 | -3.38565 | 117 ft | 19 kts | 238° |
| 2026-04-21 10:15 | 55.94291 | -3.38766 | 117 ft | 19 kts | 239° |
| 2026-04-21 10:15 | 55.94314 | -3.38894 | 119 ft | 12 kts | 325° |
| 2026-04-21 10:16 | 55.94401 | -3.38960 | 115 ft | 15 kts | 11° |
| 2026-04-21 10:16 | 55.94453 | -3.38852 | 117 ft | 0 kts | 58° |
| 2026-04-21 10:16 | 55.94456 | -3.38843 | 117 ft | 3 kts | 58° |
| 2026-04-21 10:16 | 55.94575 | -3.38498 | 113 ft | 80 kts | 59° |
| 2026-04-21 10:17 | 55.95016 | -3.37182 | 217 ft | 153 kts | 60° |
| 2026-04-21 10:17 | 55.95611 | -3.35411 | 894 ft | 175 kts | 60° |
| 2026-04-21 10:17 | 55.96231 | -3.33623 | 1950 ft | 173 kts | 57° |
| 2026-04-21 10:17 | 55.97201 | -3.32179 | 2614 ft | 192 kts | 30° |
| 2026-04-21 10:18 | 55.98565 | -3.31603 | 3250 ft | 216 kts | 4° |
| 2026-04-21 10:18 | 56.00084 | -3.32311 | 3915 ft | 238 kts | 333° |
| 2026-04-21 10:18 | 56.01257 | -3.34506 | 4549 ft | 254 kts | 299° |
| 2026-04-21 10:18 | 56.01577 | -3.37626 | 5202 ft | 262 kts | 262° |
| 2026-04-21 10:19 | 56.00957 | -3.40689 | 5847 ft | 270 kts | 242° |
| 2026-04-21 10:19 | 56.00114 | -3.43758 | 6477 ft | 283 kts | 240° |
| 2026-04-21 10:19 | 55.99229 | -3.46947 | 7109 ft | 288 kts | 240° |
| 2026-04-21 10:19 | 55.98334 | -3.50171 | 7719 ft | 291 kts | 240° |
| 2026-04-21 10:20 | 55.97435 | -3.53417 | 8337 ft | 292 kts | 240° |
| 2026-04-21 10:20 | 55.96532 | -3.56683 | 8953 ft | 294 kts | 240° |
| 2026-04-21 10:20 | 55.95635 | -3.59932 | 9586 ft | 296 kts | 240° |
| 2026-04-21 10:20 | 55.94709 | -3.63287 | 10241 ft | 299 kts | 240° |
| 2026-04-21 10:21 | 55.93797 | -3.66584 | 10849 ft | 302 kts | 240° |
| 2026-04-21 10:21 | 55.92863 | -3.69955 | 11447 ft | 304 kts | 239° |
| 2026-04-21 10:21 | 55.91919 | -3.73365 | 12064 ft | 308 kts | 239° |
| 2026-04-21 10:21 | 55.90966 | -3.76807 | 12679 ft | 311 kts | 239° |
| 2026-04-21 10:22 | 55.90009 | -3.80255 | 13315 ft | 314 kts | 239° |
| 2026-04-21 10:22 | 55.89031 | -3.83771 | 13972 ft | 317 kts | 239° |
| 2026-04-21 10:22 | 55.88041 | -3.87323 | 14607 ft | 321 kts | 239° |
| 2026-04-21 10:22 | 55.87044 | -3.90897 | 15195 ft | 324 kts | 239° |
| 2026-04-21 10:23 | 55.86038 | -3.94503 | 15804 ft | 326 kts | 239° |
| 2026-04-21 10:23 | 55.85024 | -3.98133 | 16431 ft | 329 kts | 239° |
| 2026-04-21 10:23 | 55.83997 | -4.01805 | 17067 ft | 331 kts | 239° |
| 2026-04-21 10:23 | 55.82965 | -4.05492 | 17713 ft | 334 kts | 239° |
| 2026-04-21 10:24 | 55.81934 | -4.09166 | 18358 ft | 337 kts | 239° |
| 2026-04-21 10:24 | 55.80880 | -4.12913 | 19007 ft | 340 kts | 240° |
| 2026-04-21 10:24 | 55.79728 | -4.16603 | 19598 ft | 340 kts | 232° |
| 2026-04-21 10:24 | 55.78285 | -4.19930 | 20195 ft | 339 kts | 223° |
| 2026-04-21 10:25 | 55.76576 | -4.22815 | 20809 ft | 338 kts | 214° |
| 2026-04-21 10:25 | 55.74633 | -4.25143 | 21427 ft | 336 kts | 201° |
| 2026-04-21 10:25 | 55.72441 | -4.26449 | 22065 ft | 330 kts | 184° |
| 2026-04-21 10:25 | 55.70197 | -4.26596 | 22718 ft | 325 kts | 168° |
| 2026-04-21 10:26 | 55.68027 | -4.25638 | 23379 ft | 320 kts | 153° |
| 2026-04-21 10:26 | 55.66069 | -4.23798 | 24063 ft | 320 kts | 146° |
| 2026-04-21 10:26 | 55.64121 | -4.21841 | 24642 ft | 323 kts | 147° |
| 2026-04-21 10:26 | 55.62146 | -4.19900 | 25229 ft | 326 kts | 147° |
| 2026-04-21 10:27 | 55.60146 | -4.17954 | 25821 ft | 329 kts | 148° |
| 2026-04-21 10:27 | 55.58135 | -4.16005 | 26425 ft | 331 kts | 148° |
| 2026-04-21 10:27 | 55.56093 | -4.14031 | 26856 ft | 337 kts | 148° |
| 2026-04-21 10:27 | 55.54032 | -4.12039 | 26957 ft | 339 kts | 148° |
| 2026-04-21 10:28 | 55.51989 | -4.10059 | 26971 ft | 339 kts | 148° |
| 2026-04-21 10:28 | 55.49918 | -4.08044 | 26964 ft | 339 kts | 148° |
| 2026-04-21 10:28 | 55.47848 | -4.06026 | 26962 ft | 339 kts | 148° |
| 2026-04-21 10:28 | 55.45780 | -4.04013 | 26961 ft | 339 kts | 148° |
| 2026-04-21 10:29 | 55.43712 | -4.02002 | 26962 ft | 339 kts | 148° |
| 2026-04-21 10:29 | 55.41643 | -3.99996 | 26959 ft | 339 kts | 148° |
| 2026-04-21 10:29 | 55.39601 | -3.98023 | 26952 ft | 339 kts | 148° |
| 2026-04-21 10:29 | 55.37526 | -3.96020 | 26951 ft | 339 kts | 148° |
| 2026-04-21 10:30 | 55.35454 | -3.94020 | 26950 ft | 339 kts | 148° |
| 2026-04-21 10:30 | 55.33378 | -3.92015 | 26950 ft | 339 kts | 148° |
| 2026-04-21 10:30 | 55.31306 | -3.90018 | 26950 ft | 339 kts | 148° |
| 2026-04-21 10:30 | 55.29204 | -3.87996 | 26207 ft | 351 kts | 148° |
| 2026-04-21 10:31 | 55.27091 | -3.85968 | 26168 ft | 337 kts | 148° |
| 2026-04-21 10:31 | 55.25033 | -3.83995 | 26427 ft | 338 kts | 148° |
| 2026-04-21 10:31 | 55.22987 | -3.82053 | 26678 ft | 340 kts | 150° |
| 2026-04-21 10:31 | 55.20782 | -3.80447 | 26888 ft | 345 kts | 158° |
| 2026-04-21 10:32 | 55.18500 | -3.79109 | 26937 ft | 346 kts | 158° |
| 2026-04-21 10:32 | 55.16208 | -3.77766 | 26938 ft | 347 kts | 158° |
| 2026-04-21 10:32 | 55.13913 | -3.76424 | 26938 ft | 347 kts | 158° |
| 2026-04-21 10:32 | 55.11622 | -3.75086 | 26939 ft | 347 kts | 158° |
| 2026-04-21 10:33 | 55.09362 | -3.73767 | 26932 ft | 347 kts | 158° |
| 2026-04-21 10:33 | 55.07063 | -3.72429 | 26933 ft | 347 kts | 159° |
| 2026-04-21 10:33 | 55.04768 | -3.71098 | 26941 ft | 347 kts | 159° |
| 2026-04-21 10:33 | 55.02479 | -3.69772 | 26941 ft | 347 kts | 158° |
| 2026-04-21 10:34 | 55.00189 | -3.68442 | 26941 ft | 347 kts | 158° |
| 2026-04-21 10:34 | 54.97899 | -3.67113 | 26941 ft | 347 kts | 159° |
| 2026-04-21 10:34 | 54.95635 | -3.65802 | 26941 ft | 347 kts | 159° |
| 2026-04-21 10:34 | 54.93341 | -3.64476 | 26947 ft | 347 kts | 159° |
| 2026-04-21 10:35 | 54.91043 | -3.63147 | 26941 ft | 348 kts | 159° |
| 2026-04-21 10:35 | 54.88736 | -3.61810 | 26932 ft | 348 kts | 159° |
| 2026-04-21 10:35 | 54.86462 | -3.60494 | 26931 ft | 348 kts | 159° |
| 2026-04-21 10:35 | 54.84155 | -3.59157 | 26928 ft | 348 kts | 159° |
| 2026-04-21 10:36 | 54.81851 | -3.57823 | 26927 ft | 348 kts | 159° |
| 2026-04-21 10:36 | 54.79548 | -3.56496 | 26922 ft | 348 kts | 159° |
| 2026-04-21 10:36 | 54.77241 | -3.55170 | 26923 ft | 349 kts | 159° |
| 2026-04-21 10:36 | 54.74965 | -3.53862 | 26921 ft | 349 kts | 159° |
| 2026-04-21 10:37 | 54.72656 | -3.52538 | 26922 ft | 349 kts | 159° |
| 2026-04-21 10:37 | 54.70350 | -3.51216 | 26922 ft | 349 kts | 159° |
| 2026-04-21 10:37 | 54.68049 | -3.49902 | 26917 ft | 349 kts | 160° |
| 2026-04-21 10:37 | 54.65736 | -3.48580 | 26914 ft | 349 kts | 160° |
| 2026-04-21 10:38 | 54.63425 | -3.47261 | 26913 ft | 349 kts | 160° |
| 2026-04-21 10:38 | 54.61113 | -3.45946 | 26913 ft | 350 kts | 160° |
| 2026-04-21 10:38 | 54.58799 | -3.44629 | 26905 ft | 350 kts | 160° |
| 2026-04-21 10:38 | 54.56484 | -3.43312 | 26900 ft | 350 kts | 160° |
| 2026-04-21 10:39 | 54.54191 | -3.42011 | 26903 ft | 350 kts | 160° |
| 2026-04-21 10:39 | 54.51870 | -3.40695 | 26901 ft | 350 kts | 160° |
| 2026-04-21 10:39 | 54.49551 | -3.39383 | 26898 ft | 350 kts | 160° |
| 2026-04-21 10:39 | 54.47250 | -3.38083 | 26899 ft | 350 kts | 160° |
| 2026-04-21 10:40 | 54.44930 | -3.36772 | 26900 ft | 350 kts | 161° |
| 2026-04-21 10:40 | 54.42610 | -3.35461 | 26895 ft | 351 kts | 161° |
| 2026-04-21 10:40 | 54.40282 | -3.34147 | 26896 ft | 351 kts | 161° |
| 2026-04-21 10:40 | 54.37948 | -3.32834 | 26888 ft | 351 kts | 161° |
| 2026-04-21 10:41 | 54.35640 | -3.31538 | 26903 ft | 355 kts | 161° |
| 2026-04-21 10:41 | 54.33293 | -3.30221 | 26903 ft | 354 kts | 161° |
| 2026-04-21 10:41 | 54.30940 | -3.28901 | 26901 ft | 355 kts | 161° |
| 2026-04-21 10:41 | 54.28580 | -3.27576 | 26898 ft | 358 kts | 161° |
| 2026-04-21 10:42 | 54.26207 | -3.26251 | 26902 ft | 358 kts | 161° |
| 2026-04-21 10:42 | 54.23864 | -3.24947 | 26898 ft | 356 kts | 161° |
| 2026-04-21 10:42 | 54.21509 | -3.23637 | 26900 ft | 354 kts | 161° |
| 2026-04-21 10:42 | 54.19154 | -3.22323 | 26887 ft | 358 kts | 163° |
| 2026-04-21 10:43 | 54.16750 | -3.20982 | 26894 ft | 367 kts | 164° |
| 2026-04-21 10:43 | 54.14295 | -3.19613 | 26893 ft | 370 kts | 164° |
| 2026-04-21 10:43 | 54.11874 | -3.18265 | 26891 ft | 371 kts | 164° |
| 2026-04-21 10:43 | 54.09410 | -3.16895 | 26885 ft | 371 kts | 163° |
| 2026-04-21 10:44 | 54.06971 | -3.15547 | 26882 ft | 364 kts | 162° |
| 2026-04-21 10:44 | 54.04575 | -3.14222 | 26882 ft | 362 kts | 162° |
| 2026-04-21 10:44 | 54.02181 | -3.12899 | 26882 ft | 361 kts | 162° |
| 2026-04-21 10:44 | 53.99787 | -3.11577 | 26876 ft | 362 kts | 162° |
| 2026-04-21 10:45 | 53.97420 | -3.10272 | 26872 ft | 361 kts | 162° |
| 2026-04-21 10:45 | 53.95034 | -3.08955 | 26874 ft | 360 kts | 163° |
| 2026-04-21 10:45 | 53.92610 | -3.07617 | 26879 ft | 369 kts | 163° |
| 2026-04-21 10:45 | 53.90178 | -3.06278 | 26876 ft | 373 kts | 164° |
| 2026-04-21 10:46 | 53.87693 | -3.04914 | 26876 ft | 375 kts | 164° |
| 2026-04-21 10:46 | 53.85203 | -3.03550 | 26874 ft | 374 kts | 164° |
| 2026-04-21 10:46 | 53.82728 | -3.02196 | 26876 ft | 373 kts | 163° |
| 2026-04-21 10:46 | 53.80252 | -3.00840 | 26877 ft | 374 kts | 164° |
| 2026-04-21 10:47 | 53.77777 | -2.99486 | 26876 ft | 373 kts | 163° |
| 2026-04-21 10:47 | 53.75307 | -2.98140 | 26875 ft | 373 kts | 164° |
| 2026-04-21 10:47 | 53.72828 | -2.96790 | 26877 ft | 373 kts | 163° |
| 2026-04-21 10:47 | 53.70388 | -2.95462 | 26865 ft | 373 kts | 165° |
| 2026-04-21 10:48 | 53.67892 | -2.94108 | 26876 ft | 378 kts | 164° |
| 2026-04-21 10:48 | 53.65377 | -2.92744 | 26876 ft | 380 kts | 164° |
| 2026-04-21 10:48 | 53.62847 | -2.91368 | 26876 ft | 381 kts | 164° |
| 2026-04-21 10:48 | 53.60322 | -2.89995 | 26876 ft | 381 kts | 164° |
| 2026-04-21 10:49 | 53.57803 | -2.88631 | 26876 ft | 381 kts | 164° |
| 2026-04-21 10:49 | 53.55273 | -2.87268 | 26876 ft | 381 kts | 164° |
| 2026-04-21 10:49 | 53.52777 | -2.85925 | 26875 ft | 381 kts | 164° |
| 2026-04-21 10:49 | 53.50252 | -2.84562 | 26873 ft | 381 kts | 164° |
| 2026-04-21 10:50 | 53.48575 | -2.83657 | 26871 ft | 381 kts | 164° |
| 2026-04-21 10:50 | 53.45194 | -2.81832 | 26869 ft | 381 kts | 164° |
| 2026-04-21 10:50 | 53.42702 | -2.80490 | 26857 ft | 381 kts | 164° |
| 2026-04-21 10:50 | 53.40174 | -2.79136 | 26854 ft | 381 kts | 165° |
| 2026-04-21 10:51 | 53.37647 | -2.77790 | 26854 ft | 381 kts | 165° |
| 2026-04-21 10:51 | 53.35121 | -2.76445 | 26853 ft | 381 kts | 165° |
| 2026-04-21 10:51 | 53.32586 | -2.75093 | 26854 ft | 381 kts | 165° |
| 2026-04-21 10:51 | 53.30057 | -2.73742 | 26849 ft | 381 kts | 165° |
| 2026-04-21 10:52 | 53.27532 | -2.72396 | 26850 ft | 381 kts | 165° |
| 2026-04-21 10:52 | 53.25033 | -2.71067 | 26850 ft | 381 kts | 165° |
| 2026-04-21 10:52 | 53.22504 | -2.69727 | 26849 ft | 380 kts | 165° |
| 2026-04-21 10:52 | 53.19967 | -2.68382 | 26899 ft | 382 kts | 165° |
| 2026-04-21 10:53 | 53.17418 | -2.67030 | 27162 ft | 386 kts | 165° |
| 2026-04-21 10:53 | 53.15717 | -2.66130 | 27319 ft | 388 kts | 165° |
| 2026-04-21 10:53 | 53.12291 | -2.64314 | 27409 ft | 390 kts | 165° |
| 2026-04-21 10:53 | 53.09704 | -2.62946 | 27404 ft | 390 kts | 166° |
| 2026-04-21 10:54 | 53.07114 | -2.61581 | 27400 ft | 390 kts | 166° |
| 2026-04-21 10:54 | 53.05395 | -2.60675 | 27400 ft | 390 kts | 166° |
| 2026-04-21 10:54 | 53.02800 | -2.59305 | 27394 ft | 390 kts | 166° |
| 2026-04-21 10:54 | 53.00204 | -2.57939 | 27393 ft | 390 kts | 166° |
| 2026-04-21 10:55 | 52.97615 | -2.56586 | 27375 ft | 390 kts | 167° |
| 2026-04-21 10:55 | 52.94998 | -2.55224 | 27393 ft | 397 kts | 167° |
| 2026-04-21 10:55 | 52.92353 | -2.53844 | 27388 ft | 399 kts | 167° |
| 2026-04-21 10:55 | 52.89731 | -2.52473 | 27410 ft | 400 kts | 166° |
| 2026-04-21 10:56 | 52.87089 | -2.51090 | 27385 ft | 396 kts | 166° |
| 2026-04-21 10:56 | 52.84460 | -2.49715 | 27389 ft | 394 kts | 166° |
| 2026-04-21 10:56 | 52.81858 | -2.48246 | 27387 ft | 396 kts | 160° |
| 2026-04-21 10:56 | 52.79404 | -2.46151 | 27388 ft | 399 kts | 149° |
| 2026-04-21 10:57 | 52.77090 | -2.43599 | 27388 ft | 399 kts | 148° |
| 2026-04-21 10:57 | 52.74814 | -2.41076 | 27388 ft | 399 kts | 148° |
| 2026-04-21 10:57 | 52.72499 | -2.38518 | 27364 ft | 401 kts | 149° |
| 2026-04-21 10:57 | 52.70163 | -2.35945 | 27379 ft | 406 kts | 149° |
| 2026-04-21 10:58 | 52.67801 | -2.33348 | 27378 ft | 407 kts | 149° |
| 2026-04-21 10:58 | 52.65438 | -2.30757 | 27384 ft | 408 kts | 149° |
| 2026-04-21 10:58 | 52.63074 | -2.28169 | 27369 ft | 408 kts | 149° |
| 2026-04-21 10:58 | 52.60741 | -2.25616 | 27369 ft | 408 kts | 149° |
| 2026-04-21 10:59 | 52.58374 | -2.23029 | 27369 ft | 408 kts | 149° |
| 2026-04-21 10:59 | 52.56005 | -2.20436 | 27248 ft | 409 kts | 149° |
| 2026-04-21 10:59 | 52.53649 | -2.17860 | 26999 ft | 406 kts | 149° |
| 2026-04-21 10:59 | 52.51308 | -2.15302 | 26644 ft | 403 kts | 149° |
| 2026-04-21 11:00 | 52.48998 | -2.12783 | 26109 ft | 394 kts | 149° |
| 2026-04-21 11:00 | 52.46735 | -2.10320 | 25553 ft | 386 kts | 149° |
| 2026-04-21 11:00 | 52.44505 | -2.07901 | 24960 ft | 380 kts | 148° |
| 2026-04-21 11:00 | 52.42310 | -2.05522 | 24390 ft | 375 kts | 148° |
| 2026-04-21 11:01 | 52.40180 | -2.03216 | 23827 ft | 369 kts | 148° |
| 2026-04-21 11:01 | 52.38045 | -2.00905 | 23148 ft | 364 kts | 147° |
| 2026-04-21 11:01 | 52.35948 | -1.98639 | 22484 ft | 359 kts | 147° |
| 2026-04-21 11:02 | 52.31824 | -1.94191 | 21229 ft | 350 kts | 146° |
| 2026-04-21 11:02 | 52.29806 | -1.92022 | 20621 ft | 345 kts | 146° |
| 2026-04-21 11:02 | 52.27813 | -1.89882 | 20379 ft | 342 kts | 145° |
| 2026-04-21 11:02 | 52.25837 | -1.87760 | 20341 ft | 348 kts | 146° |
| 2026-04-21 11:03 | 52.23788 | -1.85556 | 20366 ft | 354 kts | 146° |
| 2026-04-21 11:03 | 52.21721 | -1.83337 | 20368 ft | 357 kts | 146° |
| 2026-04-21 11:03 | 52.19644 | -1.81113 | 20365 ft | 357 kts | 146° |
| 2026-04-21 11:03 | 52.17556 | -1.78885 | 20376 ft | 357 kts | 146° |
| 2026-04-21 11:04 | 52.15475 | -1.76663 | 20373 ft | 357 kts | 146° |
| 2026-04-21 11:04 | 52.13403 | -1.74447 | 20377 ft | 354 kts | 146° |
| 2026-04-21 11:04 | 52.11355 | -1.72259 | 20377 ft | 350 kts | 146° |
| 2026-04-21 11:04 | 52.09312 | -1.70083 | 20138 ft | 350 kts | 146° |
| 2026-04-21 11:05 | 52.07307 | -1.67951 | 19812 ft | 346 kts | 145° |
| 2026-04-21 11:05 | 52.05286 | -1.65806 | 19500 ft | 346 kts | 145° |
| 2026-04-21 11:05 | 52.03277 | -1.63678 | 19175 ft | 342 kts | 145° |
| 2026-04-21 11:05 | 52.01278 | -1.61563 | 18824 ft | 341 kts | 146° |
| 2026-04-21 11:06 | 51.99301 | -1.59474 | 18499 ft | 337 kts | 145° |
| 2026-04-21 11:06 | 51.97346 | -1.57407 | 18135 ft | 333 kts | 145° |
| 2026-04-21 11:06 | 51.95412 | -1.55362 | 17777 ft | 329 kts | 145° |
| 2026-04-21 11:06 | 51.93530 | -1.53371 | 17428 ft | 327 kts | 145° |
| 2026-04-21 11:07 | 51.91627 | -1.51362 | 17094 ft | 325 kts | 144° |
| 2026-04-21 11:07 | 51.89746 | -1.49339 | 16803 ft | 321 kts | 144° |
| 2026-04-21 11:07 | 51.87903 | -1.47311 | 16514 ft | 318 kts | 144° |
| 2026-04-21 11:07 | 51.86069 | -1.45309 | 16237 ft | 316 kts | 143° |
| 2026-04-21 11:08 | 51.84257 | -1.43426 | 15955 ft | 311 kts | 143° |
| 2026-04-21 11:08 | 51.82439 | -1.41567 | 15671 ft | 307 kts | 143° |
| 2026-04-21 11:08 | 51.80638 | -1.39743 | 15395 ft | 303 kts | 144° |
| 2026-04-21 11:08 | 51.78848 | -1.37936 | 15118 ft | 304 kts | 144° |
| 2026-04-21 11:09 | 51.77050 | -1.36118 | 14841 ft | 305 kts | 144° |
| 2026-04-21 11:09 | 51.75259 | -1.34304 | 14570 ft | 302 kts | 144° |
| 2026-04-21 11:09 | 51.73484 | -1.32503 | 14306 ft | 300 kts | 144° |
| 2026-04-21 11:09 | 51.71723 | -1.30713 | 14029 ft | 298 kts | 144° |
| 2026-04-21 11:10 | 51.69977 | -1.28935 | 13729 ft | 295 kts | 144° |
| 2026-04-21 11:10 | 51.68248 | -1.27172 | 13430 ft | 293 kts | 144° |
| 2026-04-21 11:10 | 51.66547 | -1.25439 | 13138 ft | 291 kts | 144° |
| 2026-04-21 11:10 | 51.64839 | -1.23699 | 12847 ft | 290 kts | 144° |
| 2026-04-21 11:11 | 51.63137 | -1.21964 | 12557 ft | 288 kts | 144° |
| 2026-04-21 11:11 | 51.61452 | -1.20218 | 12267 ft | 287 kts | 144° |
| 2026-04-21 11:11 | 51.59772 | -1.18465 | 11981 ft | 285 kts | 143° |
| 2026-04-21 11:11 | 51.58120 | -1.16766 | 11700 ft | 283 kts | 143° |
| 2026-04-21 11:12 | 51.56418 | -1.15179 | 11427 ft | 283 kts | 149° |
| 2026-04-21 11:12 | 51.54635 | -1.13804 | 11151 ft | 285 kts | 151° |
| 2026-04-21 11:12 | 51.52839 | -1.12440 | 10875 ft | 284 kts | 151° |
| 2026-04-21 11:12 | 51.51054 | -1.11084 | 10601 ft | 283 kts | 151° |
| 2026-04-21 11:13 | 51.49297 | -1.09739 | 10322 ft | 282 kts | 151° |
| 2026-04-21 11:13 | 51.47532 | -1.08375 | 10048 ft | 280 kts | 151° |
| 2026-04-21 11:13 | 51.45790 | -1.07048 | 9743 ft | 274 kts | 151° |
| 2026-04-21 11:13 | 51.44073 | -1.05763 | 9446 ft | 268 kts | 151° |
| 2026-04-21 11:14 | 51.42398 | -1.04514 | 9134 ft | 263 kts | 151° |
| 2026-04-21 11:14 | 51.40754 | -1.03292 | 8849 ft | 258 kts | 151° |
| 2026-04-21 11:14 | 51.39160 | -1.02114 | 8566 ft | 253 kts | 151° |
| 2026-04-21 11:14 | 51.37576 | -1.00948 | 8279 ft | 248 kts | 151° |
| 2026-04-21 11:15 | 51.36021 | -0.99808 | 7993 ft | 243 kts | 151° |
| 2026-04-21 11:15 | 51.34494 | -0.98696 | 7708 ft | 238 kts | 151° |
| 2026-04-21 11:15 | 51.32992 | -0.97606 | 7442 ft | 234 kts | 151° |
| 2026-04-21 11:15 | 51.31509 | -0.96540 | 7175 ft | 232 kts | 151° |
| 2026-04-21 11:16 | 51.30052 | -0.95505 | 6894 ft | 230 kts | 151° |
| 2026-04-21 11:16 | 51.28588 | -0.94485 | 6611 ft | 228 kts | 151° |
| 2026-04-21 11:16 | 51.27134 | -0.93490 | 6317 ft | 226 kts | 151° |
| 2026-04-21 11:16 | 51.25709 | -0.92516 | 6129 ft | 218 kts | 151° |
| 2026-04-21 11:17 | 51.24330 | -0.91578 | 5972 ft | 211 kts | 151° |
| 2026-04-21 11:17 | 51.23009 | -0.90685 | 5820 ft | 206 kts | 151° |
| 2026-04-21 11:17 | 51.21690 | -0.89804 | 5660 ft | 205 kts | 151° |
| 2026-04-21 11:17 | 51.20374 | -0.88915 | 5504 ft | 205 kts | 151° |
| 2026-04-21 11:18 | 51.19061 | -0.88016 | 5350 ft | 204 kts | 151° |
| 2026-04-21 11:18 | 51.17753 | -0.87125 | 5197 ft | 204 kts | 150° |
| 2026-04-21 11:18 | 51.16597 | -0.85952 | 5047 ft | 197 kts | 134° |
| 2026-04-21 11:18 | 51.15587 | -0.84471 | 4884 ft | 196 kts | 131° |
| 2026-04-21 11:19 | 51.14601 | -0.82968 | 4725 ft | 195 kts | 131° |
| 2026-04-21 11:19 | 51.13680 | -0.81429 | 4560 ft | 187 kts | 123° |
| 2026-04-21 11:19 | 51.12904 | -0.79789 | 4401 ft | 184 kts | 121° |
| 2026-04-21 11:19 | 51.12163 | -0.78157 | 4238 ft | 179 kts | 121° |
| 2026-04-21 11:20 | 51.11451 | -0.76587 | 4112 ft | 176 kts | 121° |
| 2026-04-21 11:20 | 51.10733 | -0.75027 | 4064 ft | 174 kts | 121° |
| 2026-04-21 11:20 | 51.10012 | -0.73473 | 4007 ft | 174 kts | 121° |
| 2026-04-21 11:20 | 51.09283 | -0.71922 | 4007 ft | 173 kts | 121° |
| 2026-04-21 11:21 | 51.08586 | -0.70470 | 3995 ft | 158 kts | 121° |
| 2026-04-21 11:21 | 51.08081 | -0.68990 | 4004 ft | 150 kts | 102° |
| 2026-04-21 11:21 | 51.08025 | -0.67376 | 4019 ft | 144 kts | 80° |
| 2026-04-21 11:21 | 51.08243 | -0.65813 | 4013 ft | 144 kts | 76° |
| 2026-04-21 11:22 | 51.08463 | -0.64274 | 4011 ft | 144 kts | 77° |
| 2026-04-21 11:22 | 51.08686 | -0.62711 | 4010 ft | 145 kts | 76° |
| 2026-04-21 11:22 | 51.08909 | -0.61141 | 4010 ft | 145 kts | 76° |
| 2026-04-21 11:22 | 51.09131 | -0.59578 | 4009 ft | 144 kts | 76° |
| 2026-04-21 11:23 | 51.09353 | -0.58014 | 4006 ft | 145 kts | 77° |
| 2026-04-21 11:23 | 51.09574 | -0.56461 | 4010 ft | 144 kts | 77° |
| 2026-04-21 11:23 | 51.09791 | -0.54925 | 4013 ft | 143 kts | 77° |
| 2026-04-21 11:23 | 51.10012 | -0.53370 | 4013 ft | 145 kts | 76° |
| 2026-04-21 11:24 | 51.10232 | -0.51809 | 4010 ft | 145 kts | 76° |
| 2026-04-21 11:24 | 51.10455 | -0.50235 | 3942 ft | 146 kts | 76° |
| 2026-04-21 11:24 | 51.10676 | -0.48669 | 3798 ft | 144 kts | 76° |
| 2026-04-21 11:24 | 51.10891 | -0.47140 | 3629 ft | 142 kts | 76° |
| 2026-04-21 11:25 | 51.11103 | -0.45632 | 3437 ft | 132 kts | 76° |
| 2026-04-21 11:25 | 51.11295 | -0.44265 | 3260 ft | 123 kts | 75° |
| 2026-04-21 11:25 | 51.11480 | -0.42953 | 3095 ft | 119 kts | 76° |
| 2026-04-21 11:25 | 51.11660 | -0.41665 | 2935 ft | 119 kts | 76° |
| 2026-04-21 11:26 | 51.11839 | -0.40393 | 2771 ft | 117 kts | 76° |
| 2026-04-21 11:26 | 51.12016 | -0.39130 | 2610 ft | 118 kts | 75° |
| 2026-04-21 11:26 | 51.12192 | -0.37877 | 2447 ft | 116 kts | 75° |
| 2026-04-21 11:26 | 51.12370 | -0.36607 | 2287 ft | 118 kts | 75° |
| 2026-04-21 11:27 | 51.12546 | -0.35346 | 2129 ft | 115 kts | 75° |
| 2026-04-21 11:27 | 51.12719 | -0.34104 | 1975 ft | 115 kts | 75° |
| 2026-04-21 11:27 | 51.12894 | -0.32856 | 1806 ft | 116 kts | 76° |
| 2026-04-21 11:27 | 51.13070 | -0.31595 | 1651 ft | 117 kts | 76° |
| 2026-04-21 11:28 | 51.13244 | -0.30346 | 1480 ft | 117 kts | 75° |
| 2026-04-21 11:28 | 51.13418 | -0.29097 | 1321 ft | 114 kts | 75° |
| 2026-04-21 11:28 | 51.13587 | -0.27877 | 1159 ft | 112 kts | 77° |
| 2026-04-21 11:28 | 51.13759 | -0.26641 | 1009 ft | 113 kts | 73° |
| 2026-04-21 11:29 | 51.13929 | -0.25413 | 836 ft | 116 kts | 75° |
| 2026-04-21 11:29 | 51.14107 | -0.24137 | 684 ft | 118 kts | 75° |
| 2026-04-21 11:29 | 51.14287 | -0.22839 | 527 ft | 119 kts | 76° |
| 2026-04-21 11:29 | 51.14464 | -0.21557 | 353 ft | 117 kts | 75° |
| 2026-04-21 11:30 | 51.14635 | -0.20323 | 233 ft | 113 kts | 74° |
| 2026-04-21 11:30 | 51.14777 | -0.19311 | 205 ft | 70 kts | 77° |
| 2026-04-21 11:30 | 51.14848 | -0.18792 | 202 ft | 34 kts | 78° |
| 2026-04-21 11:30 | 51.14907 | -0.18569 | 207 ft | 17 kts | 49° |
| 2026-04-21 11:31 | 51.14964 | -0.18466 | 202 ft | 8 kts | 51° |
| 2026-04-21 11:31 | 51.14984 | -0.18426 | 208 ft | 2 kts | 51° |
| 2026-04-21 11:31 | 51.14985 | -0.18423 | 208 ft | 0 kts | 51° |
| 2026-04-21 11:31 | 51.14990 | -0.18414 | 208 ft | 3 kts | 51° |
| 2026-04-21 11:32 | 51.15005 | -0.18385 | 207 ft | 4 kts | 51° |
| 2026-04-21 11:32 | 51.15027 | -0.18341 | 212 ft | 7 kts | 51° |
| 2026-04-21 11:32 | 51.15062 | -0.18271 | 205 ft | 9 kts | 51° |
| 2026-04-21 11:32 | 51.15113 | -0.18188 | 206 ft | 12 kts | 25° |
| 2026-04-21 11:33 | 51.15194 | -0.18209 | 210 ft | 12 kts | 348° |
| 2026-04-21 11:33 | 51.15284 | -0.18240 | 204 ft | 14 kts | 349° |
| 2026-04-21 11:33 | 51.15384 | -0.18274 | 204 ft | 16 kts | 344° |
| 2026-04-21 11:33 | 51.15498 | -0.18316 | 204 ft | 17 kts | 347° |
| 2026-04-21 11:34 | 51.15616 | -0.18353 | 204 ft | 16 kts | 3° |
| 2026-04-21 11:34 | 51.15666 | -0.18208 | 206 ft | 16 kts | 77° |
| 2026-04-21 11:34 | 51.15694 | -0.18045 | 213 ft | 11 kts | 47° |
| 2026-04-21 11:34 | 51.15767 | -0.18052 | 212 ft | 12 kts | 347° |
| 2026-04-21 11:35 | 51.15851 | -0.18081 | 204 ft | 13 kts | 348° |
| 2026-04-21 11:35 | 51.15948 | -0.18114 | 204 ft | 15 kts | 348° |
| 2026-04-21 11:35 | 51.16037 | -0.18142 | 213 ft | 6 kts | 0° |
| 2026-04-21 11:35 | 51.16054 | -0.18090 | 207 ft | 6 kts | 78° |
| 2026-04-21 11:36 | 51.16063 | -0.18030 | 205 ft | 3 kts | 77° |
| 2026-04-21 11:36 | 51.16063 | -0.18025 | 204 ft | 0 kts | 77° |